Disclaimer: Data is provisional and is subject to revision. Not to be used as official record

Enter Station name or Station Shef Code



Query Executed Mon Jul 4 20:31:22 PDT 2022

SLPT_WX LMC Weather Station 41.5297 -119.05457
5909 Lower Mahogany Creek

Date / Time Air Temp C (C) Relative Humidity (%) Pressure (hPa) Wind Speed (mph) Wind Direction (Degree) Dew Point (C) Rainfall Annual (in) Solar Radiation (w/m^2) Snow Depth (in) SWE (in) Battery (V)
2022-07-04 08:00 PM 17.40 34.10 819.70 4.40 305.00 1.43 1.28 30.82 2.00 0.00 13.82
2022-07-04 07:00 PM 19.40 28.10 819.20 3.70 302.00 0.49 1.28 77.48 2.00 0.00 13.74
2022-07-04 06:00 PM 20.00 28.00 819.30 8.20 233.00 0.95 1.28 175.00 109.30 0.00 13.72
2022-07-04 05:00 PM 20.20 25.80 819.40 9.60 232.00 -0.01 1.28 224.90 109.30 0.00 13.72
2022-07-04 04:00 PM 19.90 28.10 819.50 10.30 194.00 0.92 1.28 890.00 1.10 0.00 13.66
2022-07-04 03:00 PM 19.40 29.90 819.60 5.40 251.00 1.35 1.28 312.60 1.20 0.00 13.66
2022-07-04 02:00 PM 19.80 28.70 819.40 12.30 194.00 1.13 1.28 972.00 1.50 0.00 13.66
2022-07-04 01:00 PM 19.50 34.60 819.60 8.50 216.00 3.49 1.28 700.10 109.30 0.00 13.65
2022-07-04 12:00 PM 18.10 34.60 819.80 8.00 209.00 2.25 1.28 1,408.00 109.30 0.00 13.72
2022-07-04 11:00 AM 15.80 40.50 820.00 3.20 259.00 2.42 1.28 591.50 109.30 0.00 13.68
2022-07-04 10:00 AM 15.50 40.20 819.80 4.30 206.00 2.04 1.28 1,009.00 109.30 0.00 14.15
2022-07-04 09:00 AM 13.30 45.50 819.90 0.60 78.00 1.78 1.28 561.40 1.30 0.00 14.30
2022-07-04 08:00 AM 12.60 48.00 819.70 2.90 26.00 1.89 1.28 272.10 2.40 0.00 14.39
2022-07-04 07:00 AM 11.20 52.20 819.60 2.30 273.00 1.77 1.28 182.10 1.40 0.00 13.55
2022-07-04 06:00 AM 6.70 58.80 819.40 4.00 133.00 -0.79 1.28 35.51 1.20 0.00 12.86
2022-07-04 05:00 AM 8.90 53.30 819.10 4.50 33.00 -0.08 1.28 -2.28 1.20 0.00 12.76
2022-07-04 04:00 AM 9.80 43.80 819.00 2.90 55.00 -1.93 1.28 -2.75 1.30 0.00 12.86
2022-07-04 03:00 AM 10.10 43.10 818.70 2.70 336.00 -1.88 1.28 -4.66 1.30 0.00 12.88
2022-07-04 02:00 AM 10.20 45.80 818.60 2.60 76.00 -0.96 1.28 -1.64 1.20 0.00 12.81
2022-07-04 01:00 AM 10.30 45.40 818.70 2.90 304.00 -0.99 1.28 -2.05 1.30 0.00 12.93
2022-07-04 12:00 AM 10.30 45.10 818.60 1.90 261.00 -1.08 1.28 -2.57 1.00 0.00 12.93
2022-07-03 11:00 PM 13.00 38.50 818.50 1.30 320.00 -0.80 1.28 -3.52 1.20 0.00 13.01
2022-07-03 10:00 PM 13.40 37.70 818.30 5.50 130.00 -0.73 1.28 -3.60 1.00 0.00 13.05
2022-07-03 09:00 PM 15.00 35.60 817.70 5.30 307.00 -0.09 1.28 -5.02 1.50 0.00 13.29
2022-07-03 08:00 PM 17.10 28.90 817.30 14.30 307.00 -1.11 1.28 26.55 1.20 0.00 13.84
2022-07-03 07:00 PM 19.40 17.40 817.10 10.20 229.00 -5.97 1.28 174.90 1.30 0.00 13.75
2022-07-03 06:00 PM 19.50 16.60 816.70 13.50 230.00 -6.50 1.28 133.20 1.50 0.00 13.68
2022-07-03 05:00 PM 20.70 16.10 816.70 5.80 229.00 -5.93 1.28 566.10 109.30 0.00 13.62
2022-07-03 04:00 PM 21.50 15.60 817.00 12.40 232.00 -5.70 1.28 1,059.00 109.30 0.00 13.59
2022-07-03 03:00 PM 21.70 15.20 817.10 13.70 221.00 -5.88 1.28 822.00 109.30 0.00 13.59
2022-07-03 02:00 PM 22.20 13.90 817.20 12.70 219.00 -6.65 1.28 1,137.00 2.20 0.00 13.60
2022-07-03 01:00 PM 20.10 17.70 817.40 7.90 203.00 -5.17 1.28 1,198.00 1.70 0.00 13.59
2022-07-03 12:00 PM 19.80 17.80 817.80 8.20 206.00 -5.34 1.28 1,182.00 1.00 0.00 14.09
2022-07-03 11:00 AM 18.10 21.70 818.10 1.90 195.00 -4.12 1.28 962.00 1.40 0.00 14.08
2022-07-03 10:00 AM 17.60 23.60 818.10 5.20 197.00 -3.42 1.28 840.00 1.80 0.00 14.09
2022-07-03 09:00 AM 15.90 41.20 818.30 2.40 188.00 2.75 1.28 641.40 1.70 0.00 13.88
2022-07-03 08:00 AM 14.20 47.30 818.50 1.80 338.00 3.15 1.28 437.60 1.20 0.00 13.69
2022-07-03 07:00 AM 9.30 62.40 818.30 1.30 121.00 2.49 1.28 247.10 1.20 0.00 13.27
2022-07-03 06:00 AM 2.90 79.50 818.30 2.00 15.00 -0.29 1.28 84.90 1.40 0.00 12.69
2022-07-03 05:00 AM 3.40 75.40 818.30 4.90 1.00 -0.53 1.28 -13.71 1.80 0.00 12.61
2022-07-03 04:00 AM 7.80 66.60 818.00 4.70 54.00 1.98 1.28 -4.29 0.90 0.00 12.80
2022-07-03 03:00 AM 10.00 55.00 818.10 6.60 38.00 1.38 1.28 -3.33 1.10 0.00 12.85
2022-07-03 02:00 AM 9.30 55.40 818.30 5.60 62.00 0.83 1.28 -4.33 1.00 0.00 12.82
2022-07-03 01:00 AM 8.30 48.20 818.50 3.00 20.00 -2.01 1.28 -5.83 0.80 0.00 12.94
2022-07-03 12:00 AM 13.00 32.90 818.50 4.20 72.00 -2.93 1.28 -3.83 1.30 0.00 12.99
2022-07-02 11:00 PM 15.20 29.10 818.00 7.90 302.00 -2.66 1.28 -4.70 1.10 0.00 13.11
2022-07-02 10:00 PM 17.30 27.70 817.50 16.30 284.00 -1.52 1.28 -4.87 1.30 0.00 13.15
2022-07-02 09:00 PM 19.40 23.90 816.70 9.20 289.00 -1.73 1.28 -4.72 2.10 0.00 13.25
2022-07-02 08:00 PM 21.10 16.30 816.40 11.80 231.00 -5.44 1.28 91.50 109.30 0.00 13.65
2022-07-02 07:00 PM 23.10 14.80 816.20 18.80 233.00 -5.11 1.28 311.60 2.80 0.00 13.62
2022-07-02 06:00 PM 24.50 14.10 816.20 12.40 236.00 -4.64 1.28 533.90 2.20 0.00 13.64
2022-07-02 05:00 PM 23.40 15.80 816.70 18.70 233.00 -4.00 1.28 129.30 2.10 0.00 13.56
2022-07-02 04:00 PM 25.40 13.60 817.10 20.70 230.00 -4.40 1.28 879.00 1.50 0.00 13.57
2022-07-02 03:00 PM 25.10 11.50 817.70 12.60 232.00 -6.84 1.28 1,037.00 109.30 0.00 13.65
2022-07-02 02:00 PM 25.50 10.20 818.20 9.70 240.00 -8.09 1.28 1,222.00 109.30 0.00 13.57
2022-07-02 01:00 PM 24.50 11.50 818.50 13.00 163.00 -7.31 1.28 1,325.00 1.90 0.00 13.53
2022-07-02 12:00 PM 22.80 13.60 819.20 7.10 209.00 -6.46 1.28 357.20 1.60 0.00 13.49
2022-07-02 11:00 AM 21.70 16.40 819.40 16.10 201.00 -4.88 1.28 353.00 109.30 0.00 14.01
2022-07-02 10:00 AM 20.70 19.30 819.60 6.60 237.00 -3.53 1.28 241.10 1.80 0.00 13.98
2022-07-02 09:00 AM 19.90 26.10 819.70 4.40 218.00 -0.10 1.28 661.50 1.40 0.00 14.02
2022-07-02 08:00 AM 17.30 31.20 819.80 0.60 4.00 0.11 1.28 452.80 1.30 0.00 13.80
2022-07-02 07:00 AM 11.20 43.70 820.30 1.40 349.00 -0.69 1.28 283.70 1.50 0.00 13.36
2022-07-02 06:00 AM 3.40 55.80 820.60 1.20 357.00 -4.59 1.28 55.84 1.40 0.00 12.80
2022-07-02 05:00 AM 3.40 52.90 820.70 3.20 9.00 -5.30 1.28 -3.09 1.50 0.00 12.69
2022-07-02 04:00 AM 6.30 47.60 820.60 4.30 45.00 -4.01 1.28 -0.94 0.90 0.00 12.72
2022-07-02 03:00 AM 7.60 40.30 820.60 1.00 109.00 -5.04 1.28 -1.92 0.80 0.00 12.79
2022-07-02 02:00 AM 9.30 34.20 820.80 2.20 74.00 -5.68 1.28 -2.78 0.80 0.00 12.88
2022-07-02 01:00 AM 11.20 30.10 820.80 1.20 96.00 -5.69 1.28 -3.43 1.00 0.00 12.96
2022-07-02 12:00 AM 11.10 31.00 821.00 3.10 23.00 -5.39 1.28 -7.83 0.40 0.00 12.88
2022-07-01 11:00 PM 16.80 19.70 821.10 6.10 70.00 -6.48 1.28 -5.65 1.20 0.00 13.10
2022-07-01 10:00 PM 17.10 19.40 821.00 2.50 71.00 -6.43 1.28 -5.44 0.60 0.00 13.13
2022-07-01 09:00 PM 17.80 21.60 820.30 3.40 63.00 -4.44 1.28 -5.30 0.70 0.00 13.22
2022-07-01 08:00 PM 23.30 17.50 819.80 8.50 318.00 -2.71 1.28 83.70 1.60 0.00 13.55
2022-07-01 07:00 PM 25.90 12.80 819.60 6.40 222.00 -4.81 1.28 253.70 1.90 0.00 13.46
2022-07-01 06:00 PM 26.70 10.60 819.70 9.40 177.00 -6.67 1.28 462.40 0.90 0.00 13.47
2022-07-01 05:00 PM 26.90 10.00 820.20 7.10 223.00 -7.27 1.28 665.60 109.30 0.00 13.47
2022-07-01 04:00 PM 27.30 11.90 820.50 13.00 227.00 -4.69 1.28 856.00 1.70 0.00 13.47
2022-07-01 03:00 PM 26.40 8.40 821.00 1.10 155.00 -9.89 1.28 999.00 109.30 0.00 13.49
2022-07-01 02:00 PM 26.10 13.20 821.50 8.70 248.00 -4.25 1.28 1,087.00 1.50 0.00 13.50
2022-07-01 01:00 PM 25.00 13.40 822.00 9.10 195.00 -4.91 1.28 1,112.00 2.10 0.00 13.49
2022-07-01 12:00 PM 23.50 14.60 822.30 4.00 212.00 -4.97 1.28 1,076.00 1.90 0.00 13.86
2022-07-01 11:00 AM 22.40 12.30 822.60 3.70 187.00 -8.07 1.28 992.00 2.20 0.00 13.95
2022-07-01 10:00 AM 21.00 25.00 822.70 5.70 229.00 0.24 1.28 848.00 1.90 0.00 13.97
2022-07-01 09:00 AM 19.40 29.70 822.80 2.70 258.00 1.26 1.28 657.00 1.20 0.00 13.85
2022-07-01 08:00 AM 16.60 34.20 822.90 1.30 27.00 0.77 1.28 455.80 1.30 0.00 13.72
2022-07-01 07:00 AM 11.50 42.70 822.80 0.50 247.00 -0.73 1.28 261.30 1.20 0.00 13.37
2022-07-01 06:00 AM 5.00 49.70 822.70 2.20 84.00 -4.64 1.28 90.80 1.00 0.00 12.81
2022-07-01 05:00 AM 2.20 57.40 822.30 4.10 358.00 -5.35 1.28 -3.34 0.90 0.00 12.77
2022-07-01 04:00 AM 3.30 56.80 822.50 3.20 15.00 -4.45 1.28 -3.71 0.90 0.00 12.70
2022-07-01 03:00 AM 5.10 49.30 822.60 3.30 95.00 -4.65 1.28 -1.92 1.10 0.00 12.85
2022-07-01 02:00 AM 8.70 39.20 822.70 2.50 112.00 -4.41 1.28 -2.64 0.90 0.00 12.91
2022-07-01 01:00 AM 12.50 29.90 822.60 1.60 191.00 -4.65 1.28 -3.05 0.30 0.00 12.96
2022-07-01 12:00 AM 14.90 22.20 822.60 0.50 107.00 -6.51 1.28 -5.79 -0.20 0.00 13.03
2022-06-30 11:00 PM 16.50 17.30 822.50 1.70 144.00 -8.41 1.28 -4.83 0.80 0.00 13.09
2022-06-30 10:00 PM 16.00 17.10 822.20 2.60 99.00 -8.97 1.28 -5.86 0.60 0.00 13.14
2022-06-30 09:00 PM 18.80 16.10 821.70 4.90 73.00 -7.46 1.28 -5.86 0.90 0.00 13.23
2022-06-30 08:00 PM 22.80 15.00 821.40 7.60 303.00 -5.17 1.28 86.20 109.30 0.00 13.57
2022-06-30 07:00 PM 25.20 10.30 821.00 4.80 240.00 -8.19 1.28 255.60 109.30 0.00 13.50
2022-06-30 06:00 PM 25.90 11.20 820.80 4.70 226.00 -6.57 1.28 455.70 2.10 0.00 13.46
2022-06-30 05:00 PM 26.50 8.80 821.20 6.40 206.00 -9.22 1.28 665.30 109.30 0.00 13.47
2022-06-30 04:00 PM 26.70 9.50 821.50 15.40 228.00 -8.09 1.28 860.00 1.30 0.00 13.50
2022-06-30 03:00 PM 26.70 9.00 821.90 10.30 213.00 -8.78 1.28 1,004.00 109.30 0.00 13.53
2022-06-30 02:00 PM 25.40 12.00 822.30 7.20 237.00 -6.05 1.28 1,087.00 1.50 0.00 13.53
2022-06-30 01:00 PM 25.60 13.10 822.60 10.00 215.00 -4.74 1.28 1,121.00 1.90 0.00 13.94
2022-06-30 12:00 PM 23.90 12.10 822.90 14.70 229.00 -7.11 1.28 1,093.00 109.30 0.00 13.95
2022-06-30 11:00 AM 23.00 14.30 823.20 14.40 211.00 -5.64 1.28 999.00 109.30 0.00 13.98
2022-06-30 10:00 AM 21.40 14.90 823.30 12.50 233.00 -6.38 1.28 855.00 1.40 0.00 13.84
2022-06-30 09:00 AM 19.90 17.70 823.60 9.40 223.00 -5.33 1.28 671.50 1.50 0.00 13.77
2022-06-30 08:00 AM 16.50 26.90 823.60 1.80 250.00 -2.60 1.28 455.20 1.70 0.00 13.68
2022-06-30 07:00 AM 9.00 37.50 823.50 2.00 118.00 -4.73 1.28 260.90 1.20 0.00 13.25
2022-06-30 06:00 AM 5.20 39.20 823.50 1.70 322.00 -7.56 1.28 92.30 0.50 0.00 12.82
2022-06-30 05:00 AM 2.50 48.50 823.30 2.10 4.00 -7.27 1.28 -14.08 0.80 0.00 12.71
2022-06-30 04:00 AM 6.50 39.50 823.30 2.60 36.00 -6.29 1.28 -3.30 0.10 0.00 12.76
2022-06-30 03:00 AM 6.10 39.30 823.50 3.10 54.00 -6.72 1.28 -2.75 0.60 0.00 12.80
2022-06-30 02:00 AM 5.20 39.70 823.50 1.60 12.00 -7.40 1.28 -4.86 0.50 0.00 12.73
2022-06-30 01:00 AM 4.10 42.40 823.70 3.10 69.00 -7.54 1.28 -4.43 0.70 0.00 12.80
2022-06-30 12:00 AM 9.50 28.90 823.30 2.50 335.00 -7.70 1.28 -1.23 1.10 0.00 12.93
2022-06-29 11:00 PM 7.40 42.20 823.50 1.80 270.00 -4.61 1.28 -4.69 0.70 0.00 12.83
2022-06-29 10:00 PM 13.70 23.10 823.50 2.10 76.00 -7.00 1.28 -5.78 0.30 0.00 13.08
2022-06-29 09:00 PM 19.10 13.30 822.90 4.70 76.00 -9.67 1.28 -6.54 0.30 0.00 13.23
2022-06-29 08:00 PM 22.80 12.00 822.50 7.00 330.00 -8.08 1.28 86.20 1.10 0.00 13.58
2022-06-29 07:00 PM 25.10 10.00 821.90 10.40 330.00 -8.65 1.28 257.40 1.50 0.00 13.53
2022-06-29 06:00 PM 26.30 9.60 821.90 9.50 292.00 -8.26 1.28 455.90 1.40 0.00 13.47
2022-06-29 05:00 PM 26.70 8.10 822.20 9.00 228.00 -10.12 1.28 664.80 109.30 0.00 13.47
2022-06-29 04:00 PM 27.10 10.80 822.80 13.40 232.00 -6.12 1.28 851.00 1.60 0.00 13.50
2022-06-29 03:00 PM 26.50 9.40 823.50 5.70 203.00 -8.38 1.28 996.00 1.80 0.00 13.50
2022-06-29 02:00 PM 26.00 10.20 823.80 9.40 191.00 -7.70 1.28 1,088.00 1.70 0.00 13.50
2022-06-29 01:00 PM 25.00 12.00 824.20 18.30 214.00 -6.36 1.28 1,117.00 1.70 0.00 13.65
2022-06-29 12:00 PM 23.30 13.90 824.70 10.30 222.00 -5.78 1.28 1,087.00 109.30 0.00 13.92
2022-06-29 11:00 AM 22.40 14.20 824.80 10.00 157.00 -6.21 1.28 984.00 1.40 0.00 13.95
2022-06-29 10:00 AM 20.40 18.50 825.00 0.80 191.00 -4.34 1.28 835.00 1.40 0.00 13.84
2022-06-29 09:00 AM 18.40 21.30 825.20 3.90 35.00 -4.12 1.28 660.80 1.50 0.00 13.73
2022-06-29 08:00 AM 15.40 28.60 825.20 5.10 358.00 -2.72 1.28 457.90 1.60 0.00 13.59
2022-06-29 07:00 AM 12.40 33.60 825.20 6.50 0.00 -3.18 1.28 262.70 1.30 0.00 13.12
2022-06-29 06:00 AM 7.00 39.60 825.10 7.40 7.00 -5.81 1.28 94.50 1.40 0.00 12.68
2022-06-29 05:00 AM 5.80 44.40 824.80 5.70 358.00 -5.39 1.28 -4.09 1.20 0.00 12.64
2022-06-29 04:00 AM 6.80 42.00 825.00 7.50 1.00 -5.22 1.28 -3.33 1.30 0.00 12.75
2022-06-29 03:00 AM 8.00 40.30 824.80 6.40 25.00 -4.68 1.28 -3.55 1.40 0.00 12.78
2022-06-29 02:00 AM 9.70 31.40 824.80 8.00 32.00 -6.45 1.28 -3.54 0.90 0.00 12.83
2022-06-29 01:00 AM 9.90 26.10 824.70 7.80 83.00 -8.66 1.28 -4.15 1.10 0.00 12.89
2022-06-29 12:00 AM 12.40 24.20 824.60 5.20 23.00 -7.50 1.28 -4.62 1.20 0.00 12.98
2022-06-28 11:00 PM 16.20 20.90 824.40 2.50 94.00 -6.21 1.28 -6.88 0.90 0.00 13.09
2022-06-28 10:00 PM 18.20 21.90 824.20 7.50 298.00 -3.92 1.28 -5.53 1.00 0.00 13.13
2022-06-28 09:00 PM 19.90 21.90 823.60 7.80 284.00 -2.49 1.28 -5.00 1.20 0.00 13.23
2022-06-28 08:00 PM 23.40 17.70 823.30 11.40 236.00 -2.48 1.27 83.40 1.10 0.00 13.59
2022-06-28 07:00 PM 25.30 13.70 822.80 15.00 226.00 -4.38 1.27 254.00 109.30 0.00 13.53
2022-06-28 06:00 PM 26.80 12.10 822.90 19.10 245.00 -4.86 1.27 456.80 109.30 0.00 13.46
2022-06-28 05:00 PM 27.70 12.40 823.00 19.50 233.00 -3.83 1.27 662.10 1.00 0.00 13.47
2022-06-28 04:00 PM 27.90 13.30 823.30 18.90 234.00 -2.73 1.27 845.00 1.10 0.00 13.47
2022-06-28 03:00 PM 28.00 13.50 823.80 15.70 201.00 -2.45 1.27 1,009.00 1.60 0.00 13.47
2022-06-28 02:00 PM 27.80 14.00 824.00 16.60 211.00 -2.12 1.27 1,133.00 109.30 0.00 13.46
2022-06-28 01:00 PM 26.90 14.90 824.70 14.40 201.00 -1.99 1.27 1,118.00 1.80 0.00 13.50
2022-06-28 12:00 PM 25.90 13.00 825.00 21.50 231.00 -4.61 1.27 1,075.00 109.30 0.00 13.46
2022-06-28 11:00 AM 25.30 16.40 825.40 15.80 229.00 -1.97 1.27 985.00 1.40 0.00 13.90
2022-06-28 10:00 AM 24.40 14.70 825.60 12.50 229.00 -4.16 1.27 847.00 1.40 0.00 13.97
2022-06-28 09:00 AM 22.90 15.30 825.70 8.80 196.00 -4.83 1.27 662.80 1.40 0.00 14.09
2022-06-28 08:00 AM 17.10 31.30 825.80 1.50 256.00 -0.02 1.27 453.40 1.30 0.00 13.88
2022-06-28 07:00 AM 8.80 53.70 826.00 1.70 93.00 -0.07 1.27 113.70 1.30 0.00 13.14
2022-06-28 06:00 AM 6.80 42.60 826.00 2.30 44.00 -5.03 1.27 21.51 1.00 0.00 12.83
2022-06-28 05:00 AM 4.40 51.80 825.80 3.40 348.00 -4.65 1.27 -2.88 1.00 0.00 12.77
2022-06-28 04:00 AM 7.40 47.80 825.80 2.90 308.00 -2.95 1.27 -5.68 0.50 0.00 12.72
2022-06-28 03:00 AM 10.40 37.50 825.90 1.60 24.00 -3.48 1.27 -2.86 0.90 0.00 12.89
2022-06-28 02:00 AM 12.10 33.50 826.30 1.70 48.00 -3.48 1.27 -4.18 0.00 0.00 12.91
2022-06-28 01:00 AM 14.70 28.30 826.10 2.10 116.00 -3.47 1.27 -3.76 0.70 0.00 13.00
2022-06-28 12:00 AM 15.90 30.50 826.10 2.00 321.00 -1.42 1.27 -6.92 0.40 0.00 13.06
2022-06-27 11:00 PM 20.10 27.90 826.10 5.00 228.00 0.99 1.27 -4.20 1.00 0.00 13.08
2022-06-27 10:00 PM 20.60 23.20 826.10 0.90 185.00 -1.12 1.27 -4.60 0.90 0.00 13.11
2022-06-27 09:00 PM 23.30 18.90 825.40 6.10 279.00 -1.67 1.27 -7.07 0.90 0.00 13.19
2022-06-27 08:00 PM 26.70 14.00 824.80 9.60 250.00 -2.99 1.27 81.20 1.10 0.00 13.53
2022-06-27 07:00 PM 28.40 11.90 824.70 8.60 237.00 -3.83 1.27 253.40 1.10 0.00 13.41
2022-06-27 06:00 PM 29.80 12.70 824.70 14.50 230.00 -1.87 1.27 450.80 109.30 0.00 13.37
2022-06-27 05:00 PM 30.10 10.80 825.00 10.70 244.00 -3.82 1.27 658.70 1.20 0.00 13.44
2022-06-27 04:00 PM 30.70 10.60 825.30 10.10 243.00 -3.61 1.27 847.00 109.30 0.00 13.37
2022-06-27 03:00 PM 30.40 9.70 825.40 9.10 225.00 -5.02 1.27 1,012.00 1.70 0.00 13.37
2022-06-27 02:00 PM 30.40 11.90 826.00 15.20 229.00 -2.29 1.27 1,088.00 1.80 0.00 13.45
2022-06-27 01:00 PM 29.80 11.40 826.40 12.20 231.00 -3.33 1.27 1,217.00 1.50 0.00 13.41
2022-06-27 12:00 PM 28.90 11.40 826.70 5.70 247.00 -4.02 1.27 1,225.00 109.30 0.00 13.42
2022-06-27 11:00 AM 27.70 13.50 826.90 10.20 247.00 -2.69 1.27 1,001.00 1.40 0.00 13.44
2022-06-27 10:00 AM 26.00 19.40 826.90 6.40 197.00 0.90 1.27 128.20 1.10 0.00 13.83
2022-06-27 09:00 AM 24.60 22.10 827.30 6.30 237.00 1.56 1.27 699.10 1.50 0.00 13.95
2022-06-27 08:00 AM 18.90 41.40 827.10 6.50 321.00 5.52 1.27 476.90 1.20 0.00 14.28
2022-06-27 07:00 AM 14.30 46.80 826.90 1.60 342.00 3.09 1.27 159.90 1.20 0.00 13.65
2022-06-27 06:00 AM 7.90 57.00 826.70 1.10 315.00 -0.09 1.27 75.45 0.90 0.00 12.90
2022-06-27 05:00 AM 8.60 53.80 826.50 3.00 19.00 -0.23 1.27 -3.70 0.90 0.00 12.79
2022-06-27 04:00 AM 9.20 53.30 826.50 3.20 8.00 0.20 1.27 -1.50 1.10 0.00 12.80
2022-06-27 03:00 AM 8.60 55.90 826.50 2.60 350.00 0.30 1.27 -3.08 0.90 0.00 12.85
2022-06-27 02:00 AM 10.40 48.90 826.70 3.40 48.00 0.12 1.27 -2.69 1.10 0.00 12.85
2022-06-27 01:00 AM 10.00 50.60 826.80 3.60 66.00 0.23 1.27 -2.96 1.00 0.00 12.87
2022-06-27 12:00 AM 14.20 39.10 826.80 3.30 43.00 0.49 1.27 -2.76 0.70 0.00 12.97
2022-06-26 11:00 PM 14.70 40.00 826.90 2.80 104.00 1.25 1.27 -3.58 0.70 0.00 13.04
2022-06-26 10:00 PM 20.80 25.10 826.50 2.50 51.00 0.13 1.27 -6.40 0.60 0.00 13.09
2022-06-26 09:00 PM 20.50 25.80 826.00 7.70 328.00 0.25 1.27 -1.97 1.60 0.00 13.16
2022-06-26 08:00 PM 24.80 17.80 825.30 4.30 106.00 -1.26 1.27 8.56 0.80 0.00 13.52
2022-06-26 07:00 PM 27.60 17.20 825.20 2.40 167.00 0.54 1.27 193.10 1.30 0.00 13.52
2022-06-26 06:00 PM 27.90 14.60 825.30 6.60 222.00 -1.47 1.27 176.90 1.40 0.00 13.46
2022-06-26 05:00 PM 29.20 13.40 825.30 6.20 184.00 -1.61 1.27 401.80 1.40 0.00 13.40
2022-06-26 04:00 PM 29.70 10.20 825.60 5.00 234.00 -4.88 1.27 252.80 109.30 0.00 13.34
2022-06-26 03:00 PM 29.80 13.10 825.70 4.30 124.00 -1.45 1.27 1,049.00 1.70 0.00 13.37
2022-06-26 02:00 PM 27.40 15.50 826.30 3.50 12.00 -1.05 1.27 172.70 1.20 0.00 13.40
2022-06-26 01:00 PM 28.20 14.70 826.70 7.70 196.00 -1.14 1.27 1,160.00 109.30 0.00 13.37
2022-06-26 12:00 PM 27.10 16.50 826.90 7.30 157.00 -0.44 1.27 1,014.00 2.10 0.00 13.37
2022-06-26 11:00 AM 26.60 18.40 826.90 6.90 340.00 0.66 1.27 979.00 109.30 0.00 13.43
2022-06-26 10:00 AM 24.50 22.50 827.10 7.10 20.00 1.72 1.27 847.00 1.40 0.00 13.55
2022-06-26 09:00 AM 20.30 32.60 827.20 7.70 12.00 3.35 1.27 335.00 1.40 0.00 13.68
2022-06-26 08:00 AM 19.80 31.50 827.30 6.90 40.00 2.43 1.27 357.00 1.40 0.00 14.18
2022-06-26 07:00 AM 15.00 39.30 827.20 3.50 313.00 1.28 1.27 295.70 1.50 0.00 14.36
2022-06-26 06:00 AM 13.20 40.70 826.50 9.20 5.00 0.14 1.27 115.50 1.00 0.00 13.17
2022-06-26 05:00 AM 13.60 37.40 826.30 8.50 356.00 -0.66 1.27 -3.74 0.90 0.00 12.91
2022-06-26 04:00 AM 15.40 34.00 826.30 11.20 42.00 -0.37 1.27 -3.86 1.10 0.00 12.99
2022-06-26 03:00 AM 14.60 37.20 826.20 8.90 25.00 0.16 1.27 -3.20 1.40 0.00 12.98
2022-06-26 02:00 AM 16.30 33.40 826.00 11.00 46.00 0.18 1.27 -4.49 1.10 0.00 13.03
2022-06-26 01:00 AM 16.30 32.80 826.30 9.50 35.00 -0.07 1.27 -5.76 1.00 0.00 13.05
2022-06-26 12:00 AM 16.40 30.90 826.50 5.80 25.00 -0.81 1.27 -5.05 0.90 0.00 13.07
2022-06-25 11:00 PM 18.20 25.20 826.40 2.80 31.00 -2.03 1.27 -5.48 0.90 0.00 13.08
2022-06-25 10:00 PM 18.80 21.20 825.70 5.90 65.00 -3.85 1.27 -3.89 1.20 0.00 13.11
2022-06-25 09:00 PM 20.60 20.10 824.90 6.80 45.00 -3.07 1.27 -5.36 1.10 0.00 13.18
2022-06-25 08:00 PM 22.10 20.40 824.20 7.50 60.00 -1.62 1.27 10.93 1.30 0.00 13.59
2022-06-25 07:00 PM 25.50 18.20 824.00 5.10 105.00 -0.39 1.27 249.00 1.10 0.00 13.52
2022-06-25 06:00 PM 26.90 15.20 823.80 3.60 78.00 -1.72 1.27 434.40 1.50 0.00 13.40
2022-06-25 05:00 PM 27.30 13.60 824.00 2.90 200.00 -2.91 1.27 677.50 1.40 0.00 13.41
2022-06-25 04:00 PM 28.00 13.40 824.60 5.20 175.00 -2.55 1.27 864.00 1.10 0.00 13.53
2022-06-25 03:00 PM 27.10 14.60 824.80 4.90 155.00 -2.11 1.27 978.00 109.30 0.00 13.49
2022-06-25 02:00 PM 27.00 15.70 825.20 12.80 247.00 -1.20 1.27 1,069.00 109.30 0.00 13.47
2022-06-25 01:00 PM 26.00 15.80 825.70 3.70 23.00 -1.91 1.27 1,103.00 1.90 0.00 13.50
2022-06-25 12:00 PM 23.90 17.10 826.10 7.90 41.00 -2.54 1.27 1,061.00 1.10 0.00 13.56
2022-06-25 11:00 AM 21.90 23.70 826.20 6.90 46.00 0.26 1.27 971.00 109.30 0.00 13.62
2022-06-25 10:00 AM 19.30 26.00 826.20 8.50 18.00 -0.67 1.27 830.00 1.50 0.00 14.11
2022-06-25 09:00 AM 16.80 30.60 826.30 6.30 49.00 -0.59 1.27 649.50 1.80 0.00 14.24
2022-06-25 08:00 AM 14.70 32.40 826.20 13.20 45.00 -1.65 1.27 453.50 1.20 0.00 14.31
2022-06-25 07:00 AM 12.80 35.70 826.10 11.20 54.00 -2.01 1.27 261.50 1.30 0.00 13.54
2022-06-25 06:00 AM 12.10 32.00 825.80 13.20 58.00 -4.09 1.27 94.80 1.20 0.00 12.99
2022-06-25 05:00 AM 12.30 29.10 825.60 11.10 80.00 -5.18 1.27 -3.60 1.40 0.00 12.92
2022-06-25 04:00 AM 13.40 26.70 825.30 6.10 71.00 -5.36 1.27 -4.63 1.40 0.00 12.95
2022-06-25 03:00 AM 13.90 25.30 825.30 9.20 65.00 -5.64 1.27 -4.67 1.40 0.00 12.99
2022-06-25 02:00 AM 14.80 21.80 825.00 10.90 81.00 -6.83 1.27 -5.05 1.40 0.00 13.05
2022-06-25 01:00 AM 15.20 19.30 824.90 4.90 76.00 -8.07 1.27 -4.43 1.50 0.00 13.07
2022-06-25 12:00 AM 14.20 20.70 824.60 5.30 73.00 -8.00 1.27 -5.73 1.30 0.00 13.07
2022-06-24 11:00 PM 15.40 19.60 824.60 10.20 73.00 -7.71 1.27 -3.68 1.50 0.00 13.11
2022-06-24 10:00 PM 16.20 22.10 824.00 11.80 47.00 -5.47 1.27 -5.03 1.40 0.00 13.15
2022-06-24 09:00 PM 15.50 26.50 823.60 5.60 31.00 -3.66 1.27 -6.42 1.50 0.00 13.30
2022-06-24 08:00 PM 20.40 20.70 823.20 12.00 37.00 -2.84 1.27 91.80 1.60 0.00 13.68
2022-06-24 07:00 PM 22.40 18.90 822.80 9.30 42.00 -2.41 1.27 314.40 1.30 0.00 13.79
2022-06-24 06:00 PM 22.80 18.10 822.40 9.70 45.00 -2.67 1.27 192.90 1.70 0.00 13.59
2022-06-24 05:00 PM 24.50 15.80 822.30 6.70 73.00 -3.12 1.27 271.90 109.30 0.00 13.54
2022-06-24 04:00 PM 25.90 15.80 822.30 15.60 305.00 -1.99 1.27 1,056.00 1.50 0.00 13.53
2022-06-24 03:00 PM 24.90 19.10 822.50 7.80 291.00 -0.22 1.27 1,072.00 1.80 0.00 13.53
2022-06-24 02:00 PM 23.60 22.90 822.80 12.80 304.00 1.22 1.27 1,333.00 1.70 0.00 13.64
2022-06-24 01:00 PM 23.90 20.00 823.10 9.80 279.00 -0.41 1.27 181.00 109.30 0.00 13.52
2022-06-24 12:00 PM 22.80 23.50 823.10 8.20 294.00 0.90 1.27 1,220.00 109.30 0.00 13.93
2022-06-24 11:00 AM 21.70 26.70 823.10 10.50 50.00 1.75 1.27 1,015.00 109.30 0.00 13.94
2022-06-24 10:00 AM 20.40 26.90 823.10 3.70 173.00 0.74 1.27 207.50 1.50 0.00 13.86
2022-06-24 09:00 AM 19.80 26.40 823.00 1.30 58.00 -0.03 1.27 646.10 1.20 0.00 13.76
2022-06-24 08:00 AM 16.00 32.80 822.90 2.30 40.00 -0.34 1.27 447.40 1.50 0.00 13.67
2022-06-24 07:00 AM 11.30 54.00 822.60 2.90 13.00 2.34 1.27 261.90 1.20 0.00 13.28
2022-06-24 06:00 AM 4.40 66.60 822.50 4.20 47.00 -1.27 1.27 98.70 1.30 0.00 12.81
2022-06-24 05:00 AM 5.50 57.00 822.10 5.00 334.00 -2.34 1.27 -3.07 1.10 0.00 12.67
2022-06-24 04:00 AM 4.50 71.10 821.90 4.50 13.00 -0.28 1.27 -2.72 1.20 0.00 12.78
2022-06-24 03:00 AM 6.10 62.10 821.90 3.90 355.00 -0.61 1.27 -3.43 0.90 0.00 12.80
2022-06-24 02:00 AM 5.50 69.50 821.70 5.40 346.00 0.37 1.27 -4.10 1.10 0.00 12.75
2022-06-24 01:00 AM 9.00 59.60 821.60 6.00 53.00 1.57 1.27 -5.38 0.80 0.00 12.90
2022-06-24 12:00 AM 8.60 65.30 821.50 2.10 342.00 2.47 1.27 -4.47 1.00 0.00 12.95
2022-06-23 11:00 PM 13.40 45.40 821.50 2.50 121.00 1.84 1.27 -3.33 0.70 0.00 13.04
2022-06-23 10:00 PM 16.10 46.30 821.50 0.80 152.00 4.59 1.27 -5.95 0.90 0.00 13.15
2022-06-23 09:00 PM 17.80 39.80 821.00 10.50 167.00 3.97 1.27 -2.08 1.30 0.00 13.27
2022-06-23 08:00 PM 20.10 36.20 820.40 10.00 224.00 4.66 1.27 49.29 1.30 0.00 13.69
2022-06-23 07:00 PM 22.60 29.50 819.80 15.60 208.00 3.93 1.27 272.90 109.30 0.00 13.62
2022-06-23 06:00 PM 21.40 29.50 819.90 10.20 219.00 2.89 1.27 103.20 1.30 0.00 13.65
2022-06-23 05:00 PM 24.10 25.30 820.10 13.50 242.00 3.04 1.27 683.30 1.30 0.00 13.64
2022-06-23 04:00 PM 24.30 23.80 820.30 14.00 218.00 2.34 1.27 850.00 1.80 0.00 13.56
2022-06-23 03:00 PM 24.30 28.20 820.40 17.90 218.00 4.75 1.27 1,073.00 109.30 0.00 13.56
2022-06-23 02:00 PM 23.40 25.20 820.60 8.00 206.00 2.39 1.27 250.20 1.40 0.00 13.52
2022-06-23 01:00 PM 25.60 18.80 820.80 10.80 332.00 0.14 1.27 1,315.00 109.30 0.00 13.46
2022-06-23 12:00 PM 24.40 22.60 821.30 1.80 282.00 1.70 1.27 1,150.00 1.50 0.00 13.46
2022-06-23 11:00 AM 24.00 28.80 821.60 5.50 0.00 4.79 1.27 970.00 109.30 0.00 13.89
2022-06-23 10:00 AM 21.60 32.80 821.80 8.00 63.00 4.57 1.27 827.00 1.50 0.00 13.98
2022-06-23 09:00 AM 20.30 37.80 821.90 6.60 42.00 5.46 1.27 652.70 1.50 0.00 14.10
2022-06-23 08:00 AM 18.10 44.10 822.10 8.30 18.00 5.71 1.27 450.20 1.30 0.00 13.87
2022-06-23 07:00 AM 14.90 53.30 821.90 6.90 24.00 5.50 1.27 259.30 1.30 0.00 13.51
2022-06-23 06:00 AM 10.50 63.50 821.90 4.30 13.00 3.88 1.27 38.51 1.10 0.00 12.89
2022-06-23 05:00 AM 8.00 66.70 822.10 4.20 17.00 2.19 1.27 -2.21 1.10 0.00 12.85
2022-06-23 04:00 AM 8.30 63.40 821.90 5.10 29.00 1.77 1.27 -3.97 1.00 0.00 12.86
2022-06-23 03:00 AM 12.10 45.80 821.90 4.80 22.00 0.78 1.27 -5.95 0.80 0.00 12.91
2022-06-23 02:00 AM 13.10 42.20 822.10 4.90 35.00 0.55 1.27 -4.56 0.80 0.00 12.93
2022-06-23 01:00 AM 7.70 45.40 821.90 6.10 17.00 -3.36 1.27 -2.36 1.30 0.00 12.79
2022-06-23 12:00 AM 11.50 37.80 822.10 2.20 17.00 -2.39 1.27 -3.85 0.80 0.00 12.98
2022-06-22 11:00 PM 11.20 42.30 822.30 3.90 34.00 -1.13 1.27 -3.84 1.10 0.00 12.91
2022-06-22 10:00 PM 12.30 38.70 822.30 1.30 310.00 -1.36 1.27 -4.51 0.90 0.00 13.12
2022-06-22 09:00 PM 20.80 21.40 821.90 2.00 151.00 -2.06 1.27 -5.52 0.60 0.00 13.20
2022-06-22 08:00 PM 25.00 16.00 821.70 2.70 209.00 -2.55 1.27 101.10 109.30 0.00 13.50
2022-06-22 07:00 PM 26.30 12.00 821.70 4.70 118.00 -5.35 1.27 325.40 109.30 0.00 13.46
2022-06-22 06:00 PM 26.70 10.70 821.70 6.00 179.00 -6.55 1.27 596.40 109.30 0.00 13.53
2022-06-22 05:00 PM 26.00 10.80 822.30 2.10 54.00 -6.96 1.27 765.10 1.10 0.00 13.46
2022-06-22 04:00 PM 27.10 11.40 822.80 11.50 181.00 -5.41 1.27 920.00 109.30 0.00 13.51
2022-06-22 03:00 PM 26.90 10.20 823.50 3.10 124.00 -7.02 1.27 992.00 109.30 0.00 13.46
2022-06-22 02:00 PM 26.70 9.00 824.00 4.50 199.00 -8.78 1.27 1,083.00 109.30 0.00 13.52
2022-06-22 01:00 PM 25.50 9.70 824.80 1.60 218.00 -8.73 1.27 1,118.00 109.30 0.00 13.46
2022-06-22 12:00 PM 25.10 12.70 825.20 6.50 184.00 -5.54 1.27 1,085.00 0.90 0.00 13.43
2022-06-22 11:00 AM 24.30 17.00 825.60 6.40 214.00 -2.29 1.27 984.00 1.20 0.00 13.86
2022-06-22 10:00 AM 22.60 21.90 826.00 2.30 8.00 -0.24 1.27 837.00 1.20 0.00 13.99
2022-06-22 09:00 AM 20.00 32.80 826.20 7.80 12.00 3.17 1.27 665.40 1.40 0.00 14.08
2022-06-22 08:00 AM 17.50 37.70 826.30 7.80 24.00 2.93 1.27 462.80 1.40 0.00 13.88
2022-06-22 07:00 AM 13.80 48.00 826.40 4.80 343.00 2.99 1.27 266.70 1.30 0.00 13.50
2022-06-22 06:00 AM 9.10 59.50 826.40 1.60 87.00 1.64 1.27 95.90 1.10 0.00 13.01
2022-06-22 05:00 AM 7.20 64.40 826.20 4.20 339.00 0.94 1.27 -3.07 1.10 0.00 12.89
2022-06-22 04:00 AM 10.70 49.40 826.30 5.50 18.00 0.54 1.27 -7.35 0.70 0.00 12.83
2022-06-22 03:00 AM 10.40 51.60 826.50 6.80 36.00 0.87 1.27 -2.64 1.50 0.00 12.84
2022-06-22 02:00 AM 14.20 39.30 826.50 10.40 71.00 0.56 1.27 -4.38 1.30 0.00 13.02
2022-06-22 01:00 AM 14.40 34.70 826.50 7.30 56.00 -0.98 1.27 -4.91 1.10 0.00 13.05
2022-06-22 12:00 AM 14.80 27.80 826.70 9.10 66.00 -3.62 1.27 -4.87 1.10 0.00 13.07
2022-06-21 11:00 PM 16.20 25.50 826.80 6.60 60.00 -3.58 1.27 -5.95 1.10 0.00 13.11
2022-06-21 10:00 PM 12.80 35.20 826.80 5.90 62.00 -2.20 1.27 -3.62 1.20 0.00 12.97
2022-06-21 09:00 PM 13.70 36.20 826.40 5.60 40.00 -1.02 1.27 -5.29 0.90 0.00 13.20
2022-06-21 08:00 PM 18.70 26.10 826.20 5.10 41.00 -1.13 1.27 84.60 1.10 0.00 13.65
2022-06-21 07:00 PM 22.60 18.20 826.00 5.40 68.00 -2.76 1.27 251.60 1.60 0.00 13.55
2022-06-21 06:00 PM 23.00 18.50 825.80 5.40 83.00 -2.21 1.27 446.00 1.20 0.00 13.52
2022-06-21 05:00 PM 23.30 16.90 826.10 3.10 315.00 -3.18 1.27 651.60 0.90 0.00 13.55
2022-06-21 04:00 PM 22.60 18.50 826.30 2.30 1.00 -2.54 1.27 839.00 109.30 0.00 13.59
2022-06-21 03:00 PM 22.10 18.30 826.70 3.40 61.00 -3.09 1.27 988.00 1.40 0.00 13.62
2022-06-21 02:00 PM 21.30 21.90 827.10 5.40 0.00 -1.32 1.27 1,079.00 109.30 0.00 13.62
2022-06-21 01:00 PM 20.10 21.50 827.70 7.00 48.00 -2.58 1.27 1,112.00 109.30 0.00 14.01
2022-06-21 12:00 PM 19.80 23.20 827.80 8.80 79.00 -1.80 1.27 1,081.00 1.70 0.00 13.80
2022-06-21 11:00 AM 18.50 25.50 827.90 9.60 121.00 -1.62 1.27 992.00 1.30 0.00 13.65
2022-06-21 10:00 AM 16.90 29.20 828.10 2.10 35.00 -1.14 1.27 850.00 1.60 0.00 13.56
2022-06-21 09:00 AM 16.00 30.40 828.00 13.80 66.00 -1.38 1.27 671.30 1.30 0.00 13.56
2022-06-21 08:00 AM 14.00 38.90 827.90 5.80 6.00 0.24 1.27 469.50 1.40 0.00 13.51
2022-06-21 07:00 AM 9.90 50.20 827.90 6.10 349.00 0.03 1.27 271.50 1.20 0.00 12.93
2022-06-21 06:00 AM 1.90 72.30 827.80 3.30 353.00 -2.55 1.27 92.60 1.10 0.00 12.74
2022-06-21 05:00 AM 3.40 69.50 827.70 3.70 53.00 -1.65 1.27 -3.78 1.00 0.00 12.82
2022-06-21 04:00 AM 5.00 60.10 827.60 5.80 20.00 -2.09 1.27 -4.06 1.10 0.00 12.76
2022-06-21 03:00 AM 2.30 68.30 827.30 4.70 11.00 -2.94 1.27 -2.82 1.20 0.00 12.75
2022-06-21 02:00 AM 5.50 54.60 827.20 1.30 0.00 -2.92 1.27 -4.23 0.90 0.00 12.88
2022-06-21 01:00 AM 4.20 62.40 827.10 3.00 354.00 -2.34 1.27 -3.27 0.70 0.00 12.86
2022-06-21 12:00 AM 6.20 49.70 826.90 3.60 334.00 -3.53 1.27 -4.92 0.70 0.00 12.84
2022-06-20 11:00 PM 6.00 56.00 826.90 4.30 33.00 -2.11 1.27 -3.06 0.90 0.00 12.89
2022-06-20 10:00 PM 7.20 55.10 826.50 4.30 34.00 -1.21 1.27 -4.61 1.10 0.00 12.99
2022-06-20 09:00 PM 9.50 47.20 826.10 4.40 53.00 -1.19 1.27 -4.43 1.10 0.00 13.14
2022-06-20 08:00 PM 15.60 30.30 825.60 2.90 87.00 -1.77 1.27 91.10 109.30 0.00 13.77
2022-06-20 07:00 PM 17.40 28.40 825.40 2.90 95.00 -1.09 1.27 120.70 1.10 0.00 13.71
2022-06-20 06:00 PM 17.00 29.50 825.40 1.10 337.00 -0.92 1.27 354.80 109.30 0.00 13.75
2022-06-20 05:00 PM 17.70 29.80 825.60 7.20 10.00 -0.17 1.27 679.80 109.30 0.00 13.69
2022-06-20 04:00 PM 17.50 25.10 825.60 3.90 251.00 -2.68 1.27 415.60 109.30 0.00 13.68
2022-06-20 03:00 PM 16.50 25.10 825.80 1.90 105.00 -3.53 1.27 562.70 1.70 0.00 13.80
2022-06-20 02:00 PM 15.80 28.60 826.00 1.60 172.00 -2.38 1.27 1,426.00 1.00 0.00 13.65
2022-06-20 01:00 PM 15.90 28.10 826.20 6.20 150.00 -2.53 1.27 1,185.00 1.20 0.00 14.27
2022-06-20 12:00 PM 14.50 34.10 826.10 7.80 318.00 -1.13 1.27 938.00 1.50 0.00 14.14
2022-06-20 11:00 AM 13.00 36.60 826.10 3.10 88.00 -1.49 1.27 995.00 1.40 0.00 13.70
2022-06-20 10:00 AM 12.50 41.70 826.00 4.10 164.00 -0.15 1.27 895.00 1.10 0.00 13.60
2022-06-20 09:00 AM 10.60 48.10 826.00 3.60 10.00 0.08 1.27 649.10 1.40 0.00 13.53
2022-06-20 08:00 AM 9.00 53.10 825.70 4.50 13.00 -0.04 1.27 464.00 1.50 0.00 13.20
2022-06-20 07:00 AM 3.30 78.50 825.50 6.30 327.00 -0.08 1.27 263.10 1.20 0.00 12.71
2022-06-20 06:00 AM -3.00 93.50 825.30 3.00 26.00 -3.90 1.27 91.20 1.30 0.00 12.76
2022-06-20 05:00 AM -3.00 91.00 825.20 2.20 15.00 -4.26 1.27 -13.29 0.90 0.00 12.69
2022-06-20 04:00 AM -2.50 93.10 825.00 1.80 352.00 -3.46 1.26 -13.33 1.20 0.00 12.82
2022-06-20 03:00 AM -0.90 85.30 824.80 1.90 334.00 -3.06 1.26 -14.25 1.00 0.00 12.82
2022-06-20 02:00 AM -1.30 87.40 824.60 3.30 17.00 -3.12 1.26 -13.47 1.10 0.00 12.73
2022-06-20 01:00 AM 0.40 84.60 824.60 4.60 351.00 -1.89 1.26 -13.96 1.00 0.00 12.89
2022-06-20 12:00 AM 1.40 78.50 824.40 4.70 32.00 -1.93 1.26 -13.83 0.80 0.00 12.82
2022-06-19 11:00 PM 3.90 65.00 824.20 5.00 26.00 -2.08 1.26 -3.78 0.60 0.00 12.90
2022-06-19 10:00 PM 4.00 66.80 824.20 2.40 87.00 -1.61 1.26 -2.66 0.90 0.00 12.96
2022-06-19 09:00 PM 5.80 61.00 823.50 6.80 4.00 -1.14 1.26 -3.22 1.10 0.00 12.94
2022-06-19 08:00 PM 9.90 46.30 823.00 8.40 351.00 -1.09 1.26 93.00 109.30 0.00 13.97
2022-06-19 07:00 PM 12.10 32.00 822.60 9.80 343.00 -4.09 1.26 277.50 109.30 0.00 13.91
2022-06-19 06:00 PM 12.40 37.70 822.30 10.60 5.00 -1.62 1.26 548.90 109.30 0.00 13.97
2022-06-19 05:00 PM 10.80 43.60 822.30 8.70 7.00 -1.08 1.26 185.40 1.60 0.00 14.00
2022-06-19 04:00 PM 9.50 61.80 822.40 2.50 172.00 2.55 1.26 409.30 109.30 0.00 14.06
2022-06-19 03:00 PM 7.30 71.90 822.50 5.60 68.00 2.57 1.25 205.30 1.30 0.00 14.05
2022-06-19 02:00 PM 5.60 78.30 822.80 15.80 321.00 2.13 1.23 108.00 1.00 0.00 13.45
2022-06-19 01:00 PM 9.30 45.80 822.10 8.50 325.00 -1.78 1.21 361.50 109.30 0.00 14.46
2022-06-19 12:00 PM 8.90 51.20 822.10 8.90 325.00 -0.63 1.21 869.00 1.50 0.00 14.43
2022-06-19 11:00 AM 8.60 50.60 822.10 6.60 318.00 -1.07 1.21 340.70 1.40 0.00 13.93
2022-06-19 10:00 AM 8.20 51.40 821.90 5.90 321.00 -1.23 1.21 386.60 1.30 0.00 13.89
2022-06-19 09:00 AM 5.80 70.50 822.10 7.60 355.00 0.86 1.21 487.40 1.40 0.00 13.29
2022-06-19 08:00 AM 5.00 75.10 821.70 7.70 31.00 0.96 1.21 148.50 1.10 0.00 13.11
2022-06-19 07:00 AM 4.50 83.40 821.50 7.50 63.00 1.94 1.21 361.90 1.40 0.00 12.80
2022-06-19 06:00 AM 1.80 94.60 821.30 6.00 50.00 1.03 1.21 7.88 1.20 0.00 12.56
2022-06-19 05:00 AM 1.10 94.40 821.10 4.20 354.00 0.30 1.21 -13.14 1.10 0.00 12.63
2022-06-19 04:00 AM -0.70 98.80 820.80 3.60 1.00 -0.87 1.21 -11.47 1.10 0.00 12.54
2022-06-19 03:00 AM 0.00 95.50 820.40 5.50 32.00 -0.63 1.21 -13.39 1.20 0.00 12.54
2022-06-19 02:00 AM 0.30 92.70 820.40 4.60 42.00 -0.74 1.21 -13.77 1.00 0.00 12.59
2022-06-19 01:00 AM 0.90 91.70 820.30 5.70 45.00 -0.30 1.21 -13.60 1.20 0.00 12.70
2022-06-19 12:00 AM 1.90 86.10 820.30 6.30 46.00 -0.18 1.21 -14.31 1.10 0.00 12.71
2022-06-18 11:00 PM 2.70 80.00 820.10 5.20 37.00 -0.40 1.21 -13.57 1.20 0.00 12.79
2022-06-18 10:00 PM 2.20 72.00 819.90 2.60 30.00 -2.32 1.21 -4.69 0.80 0.00 12.84
2022-06-18 09:00 PM 4.50 67.70 819.30 1.50 76.00 -0.95 1.21 -3.42 1.10 0.00 12.92
2022-06-18 08:00 PM 4.60 72.40 819.80 9.10 275.00 0.07 1.21 14.78 1.30 0.00 12.80
2022-06-18 07:00 PM 5.60 73.10 819.40 9.60 346.00 1.17 1.21 28.28 1.40 0.00 12.97
2022-06-18 06:00 PM 7.50 61.90 818.30 12.70 18.00 0.67 1.20 105.10 1.40 0.00 13.50
2022-06-18 05:00 PM 9.10 52.60 817.90 7.80 11.00 -0.07 1.20 539.90 1.50 0.00 13.95
2022-06-18 04:00 PM 12.40 38.80 817.30 13.10 305.00 -1.23 1.20 476.20 109.30 0.00 13.88
2022-06-18 03:00 PM 13.00 37.10 816.40 16.10 244.00 -1.31 1.20 1,254.00 109.30 0.00 13.90
2022-06-18 02:00 PM 11.40 39.00 816.90 6.40 101.00 -2.06 1.20 501.50 1.60 0.00 13.96
2022-06-18 01:00 PM 10.80 37.70 816.60 11.60 295.00 -3.05 1.20 294.90 109.30 0.00 13.95
2022-06-18 12:00 PM 11.30 37.00 816.60 8.00 241.00 -2.86 1.20 336.70 109.30 0.00 14.29
2022-06-18 11:00 AM 10.40 37.80 816.50 5.00 141.00 -3.38 1.20 1,174.00 0.50 0.00 14.33
2022-06-18 10:00 AM 7.90 50.90 816.40 1.80 175.00 -1.64 1.20 236.10 1.40 0.00 14.07
2022-06-18 09:00 AM 6.90 60.30 816.40 0.30 182.00 -0.25 1.20 264.30 1.60 0.00 13.96
2022-06-18 08:00 AM 6.60 66.70 816.20 3.50 327.00 0.85 1.20 207.10 1.20 0.00 13.65
2022-06-18 07:00 AM 4.50 76.80 816.00 2.60 355.00 0.79 1.20 274.00 1.20 0.00 12.93
2022-06-18 06:00 AM -0.80 93.10 815.80 3.20 4.00 -1.78 1.20 75.59 1.10 0.00 12.72
2022-06-18 05:00 AM 0.30 87.70 815.40 5.30 81.00 -1.50 1.20 -13.06 1.10 0.00 12.63
2022-06-18 04:00 AM 2.20 83.50 815.30 4.10 18.00 -0.30 1.20 -13.38 1.10 0.00 12.65
2022-06-18 03:00 AM 3.80 69.80 814.60 7.30 34.00 -1.20 1.20 -3.53 1.20 0.00 12.79
2022-06-18 02:00 AM 4.90 54.70 814.40 2.70 47.00 -3.46 1.20 -1.91 1.30 0.00 12.72
2022-06-18 01:00 AM 6.30 52.40 814.80 0.40 156.00 -2.73 1.20 -1.85 1.20 0.00 12.85
2022-06-18 12:00 AM 7.50 46.50 814.60 2.30 331.00 -3.23 1.20 -1.80 1.10 0.00 12.88
2022-06-17 11:00 PM 8.00 41.60 813.90 3.90 305.00 -4.26 1.20 -3.21 1.10 0.00 12.78
2022-06-17 10:00 PM 8.60 46.20 813.30 9.50 305.00 -2.30 1.20 -3.60 1.10 0.00 12.85
2022-06-17 09:00 PM 10.70 38.40 812.60 14.50 319.00 -2.90 1.20 -2.60 1.10 0.00 12.95
2022-06-17 08:00 PM 13.00 16.60 812.10 6.10 252.00 -11.79 1.20 131.60 109.30 0.00 13.91
2022-06-17 07:00 PM 14.90 14.50 811.90 9.70 212.00 -11.94 1.20 265.70 1.20 0.00 13.84
2022-06-17 06:00 PM 16.30 10.70 811.70 12.00 200.00 -14.57 1.20 467.40 109.30 0.00 13.87
2022-06-17 05:00 PM 15.60 9.70 811.70 7.00 159.00 -16.30 1.20 386.90 109.30 0.00 13.88
2022-06-17 04:00 PM 14.90 9.10 812.10 8.10 185.00 -17.59 1.20 248.50 1.50 0.00 13.88
2022-06-17 03:00 PM 14.80 9.30 812.40 11.50 224.00 -17.41 1.20 365.50 1.80 0.00 13.85
2022-06-17 02:00 PM 15.90 8.90 812.40 13.60 228.00 -17.09 1.20 616.70 1.30 0.00 13.78
2022-06-17 01:00 PM 16.00 6.70 812.50 12.60 213.00 -20.35 1.20 844.00 1.20 0.00 13.81
2022-06-17 12:00 PM 15.50 8.60 812.30 17.40 221.00 -17.81 1.20 1,083.00 1.00 0.00 13.81
2022-06-17 11:00 AM 14.90 9.20 812.40 15.70 212.00 -17.46 1.20 960.00 109.30 0.00 14.27
2022-06-17 10:00 AM 13.70 11.50 812.20 16.10 225.00 -15.73 1.20 436.20 1.40 0.00 14.39
2022-06-17 09:00 AM 12.90 22.70 812.10 12.20 209.00 -7.90 1.20 270.90 1.50 0.00 14.42
2022-06-17 08:00 AM 12.20 27.00 811.70 6.40 221.00 -6.25 1.20 201.60 1.30 0.00 13.80
2022-06-17 07:00 AM 10.40 30.50 811.80 5.30 233.00 -6.22 1.20 39.05 1.70 0.00 12.93
2022-06-17 06:00 AM 9.20 35.40 811.90 1.90 206.00 -5.32 1.20 10.38 1.20 0.00 12.89
2022-06-17 05:00 AM 10.10 33.60 811.70 3.20 158.00 -5.21 1.20 -2.64 1.20 0.00 12.89
2022-06-17 04:00 AM 11.20 38.40 811.50 6.00 220.00 -2.45 1.20 -2.67 1.70 0.00 12.90
2022-06-17 03:00 AM 12.20 32.90 811.30 5.60 230.00 -3.64 1.20 -3.71 1.10 0.00 12.90
2022-06-17 02:00 AM 10.60 33.40 811.60 5.10 240.00 -4.85 1.20 -3.23 0.80 0.00 12.89
2022-06-17 01:00 AM 9.80 38.10 812.10 2.30 258.00 -3.81 1.20 -5.30 0.50 0.00 12.93
2022-06-17 12:00 AM 11.00 29.40 812.30 2.20 68.00 -6.17 1.20 -3.29 1.10 0.00 12.97
2022-06-16 11:00 PM 12.60 30.40 812.60 6.40 266.00 -4.34 1.20 -4.97 1.10 0.00 13.02
2022-06-16 10:00 PM 16.30 20.20 813.00 1.70 200.00 -6.57 1.20 -4.83 0.70 0.00 13.18
2022-06-16 09:00 PM 17.90 17.60 812.60 3.40 197.00 -7.04 1.20 -3.96 1.50 0.00 13.29
2022-06-16 08:00 PM 19.10 18.00 812.80 8.70 235.00 -5.77 1.20 17.82 1.40 0.00 13.82
2022-06-16 07:00 PM 20.50 15.80 812.60 16.50 261.00 -6.34 1.20 63.00 1.30 0.00 13.77
2022-06-16 06:00 PM 21.90 15.80 812.50 14.40 239.00 -5.21 1.20 197.60 109.30 0.00 13.68
2022-06-16 05:00 PM 22.90 13.80 813.10 16.90 224.00 -6.19 1.20 334.50 1.50 0.00 13.65
2022-06-16 04:00 PM 23.40 14.50 813.60 14.60 232.00 -5.14 1.20 453.10 109.30 0.00 13.62
2022-06-16 03:00 PM 23.90 13.70 814.20 16.60 211.00 -5.49 1.20 590.60 1.40 0.00 13.59
2022-06-16 02:00 PM 24.30 14.60 814.70 13.90 190.00 -4.33 1.20 1,105.00 1.60 0.00 13.56
2022-06-16 01:00 PM 23.70 12.90 815.60 21.30 193.00 -6.44 1.20 1,214.00 1.40 0.00 13.59
2022-06-16 12:00 PM 22.50 11.90 815.60 18.20 225.00 -8.42 1.20 1,105.00 109.30 0.00 13.66
2022-06-16 11:00 AM 21.50 14.50 816.00 15.50 214.00 -6.65 1.20 1,012.00 1.30 0.00 13.76
2022-06-16 10:00 AM 20.00 17.80 816.40 16.80 222.00 -5.18 1.20 867.00 1.20 0.00 14.11
2022-06-16 09:00 AM 18.50 20.90 816.70 14.90 224.00 -4.29 1.20 680.90 1.40 0.00 14.19
2022-06-16 08:00 AM 16.40 27.10 816.70 10.60 196.00 -2.59 1.20 480.90 1.40 0.00 14.00
2022-06-16 07:00 AM 13.30 30.90 816.90 4.70 196.00 -3.51 1.20 33.69 1.20 0.00 13.12
2022-06-16 06:00 AM 13.70 30.70 816.80 2.10 190.00 -3.25 1.20 14.82 1.30 0.00 13.09
2022-06-16 05:00 AM 12.20 35.70 816.80 2.10 102.00 -2.54 1.20 -3.78 1.20 0.00 13.02
2022-06-16 04:00 AM 13.40 33.40 816.70 5.10 192.00 -2.38 1.20 -2.44 1.30 0.00 13.02
2022-06-16 03:00 AM 13.00 34.00 817.10 7.30 152.00 -2.49 1.20 -0.36 1.30 0.00 13.03
2022-06-16 02:00 AM 12.90 35.10 817.30 2.90 168.00 -2.15 1.20 -4.39 0.90 0.00 13.06
2022-06-16 01:00 AM 15.10 31.30 817.70 5.50 147.00 -1.76 1.20 -2.84 1.00 0.00 13.11
2022-06-16 12:00 AM 17.60 26.50 817.90 12.50 243.00 -1.86 1.20 -2.57 1.30 0.00 13.15
2022-06-15 11:00 PM 18.00 25.30 817.90 11.40 257.00 -2.15 1.20 -3.99 1.10 0.00 13.17
2022-06-15 10:00 PM 18.40 24.80 817.90 12.60 246.00 -2.08 1.20 -4.49 1.20 0.00 13.20
2022-06-15 09:00 PM 19.70 24.20 817.90 6.10 209.00 -1.31 1.20 -4.53 1.00 0.00 13.29
2022-06-15 08:00 PM 21.80 20.20 817.40 7.00 194.00 -2.01 1.20 68.55 1.40 0.00 13.65
2022-06-15 07:00 PM 22.80 18.10 817.70 11.00 170.00 -2.67 1.20 241.60 109.30 0.00 13.63
2022-06-15 06:00 PM 23.20 17.60 818.10 18.70 207.00 -2.72 1.20 445.20 109.30 0.00 13.59
2022-06-15 05:00 PM 23.40 16.10 818.80 19.20 206.00 -3.75 1.20 648.70 1.50 0.00 13.59
2022-06-15 04:00 PM 23.20 17.50 819.30 9.80 200.00 -2.80 1.20 837.00 109.30 0.00 13.65
2022-06-15 03:00 PM 21.10 17.40 820.10 19.30 218.00 -4.58 1.20 982.00 109.30 0.00 13.68
2022-06-15 02:00 PM 19.80 18.20 820.60 10.60 184.00 -5.05 1.20 1,076.00 109.30 0.00 13.71
2022-06-15 01:00 PM 18.80 17.70 821.00 2.60 205.00 -6.23 1.20 1,106.00 109.30 0.00 14.05
2022-06-15 12:00 PM 17.00 18.80 821.50 11.30 217.00 -6.92 1.20 1,079.00 1.70 0.00 13.66
2022-06-15 11:00 AM 15.00 21.60 821.70 9.10 199.00 -6.78 1.20 992.00 0.90 0.00 13.58
2022-06-15 10:00 AM 12.50 26.50 822.20 8.00 222.00 -6.23 1.20 855.00 1.50 0.00 13.51
2022-06-15 09:00 AM 10.20 30.70 822.60 8.40 202.00 -6.30 1.20 673.20 1.50 0.00 13.35
2022-06-15 08:00 AM 8.70 33.00 822.60 6.30 228.00 -6.68 1.20 470.50 1.20 0.00 13.21
2022-06-15 07:00 AM 3.50 49.60 822.60 0.60 30.00 -6.05 1.20 258.50 1.40 0.00 13.01
2022-06-15 06:00 AM -2.90 72.70 822.80 4.10 47.00 -7.11 1.20 93.30 1.20 0.00 12.69
2022-06-15 05:00 AM -3.30 73.20 822.90 1.90 309.00 -7.41 1.20 -12.68 1.20 0.00 12.63
2022-06-15 04:00 AM -1.90 64.90 822.80 1.90 321.00 -7.62 1.20 -13.71 1.10 0.00 12.79
2022-06-15 03:00 AM -0.70 59.50 822.30 0.30 333.00 -7.61 1.20 -15.75 0.80 0.00 12.80
2022-06-15 02:00 AM 0.50 55.50 822.90 4.50 8.00 -7.38 1.20 -14.65 1.00 0.00 12.85
2022-06-15 01:00 AM 0.80 57.30 823.00 4.70 21.00 -6.68 1.20 -3.68 1.20 0.00 12.78
2022-06-15 12:00 AM 4.70 39.30 823.10 6.80 75.00 -7.98 1.20 -3.73 1.30 0.00 12.93
2022-06-14 11:00 PM 6.00 35.80 823.20 4.70 20.00 -8.02 1.20 -4.92 1.20 0.00 12.94
2022-06-14 10:00 PM 6.00 35.90 823.20 5.00 56.00 -7.98 1.20 -4.34 1.60 0.00 12.99
2022-06-14 09:00 PM 5.20 38.30 822.70 5.30 67.00 -7.86 1.20 -5.12 1.40 0.00 13.08
2022-06-14 08:00 PM 10.40 27.60 822.40 7.60 11.00 -7.51 1.19 73.19 1.80 0.00 13.98
2022-06-14 07:00 PM 13.40 26.80 821.90 13.20 352.00 -5.31 1.19 239.10 109.30 0.00 13.99
2022-06-14 06:00 PM 14.50 21.90 821.90 17.10 311.00 -7.02 1.19 440.70 109.30 0.00 13.84
2022-06-14 05:00 PM 14.70 22.10 821.90 10.80 294.00 -6.73 1.19 651.80 109.30 0.00 13.84
2022-06-14 04:00 PM 15.20 18.00 821.70 22.40 316.00 -8.97 1.19 847.00 1.30 0.00 13.84
2022-06-14 03:00 PM 15.10 19.10 821.80 14.20 258.00 -8.29 1.19 998.00 109.30 0.00 13.84
2022-06-14 02:00 PM 15.20 19.40 821.40 10.70 292.00 -8.00 1.19 1,095.00 1.40 0.00 14.23
2022-06-14 01:00 PM 14.30 20.80 821.50 10.80 245.00 -7.86 1.19 1,125.00 1.20 0.00 14.40
2022-06-14 12:00 PM 12.60 28.20 821.90 15.30 268.00 -5.33 1.19 1,091.00 1.40 0.00 13.60
2022-06-14 11:00 AM 10.90 36.30 822.30 10.30 207.00 -3.47 1.19 990.00 1.60 0.00 13.53
2022-06-14 10:00 AM 8.80 42.00 822.50 5.90 218.00 -3.40 1.19 846.00 1.50 0.00 13.40
2022-06-14 09:00 AM 7.40 49.90 823.10 2.10 177.00 -2.37 1.19 665.00 1.90 0.00 13.40
2022-06-14 08:00 AM 5.10 59.50 822.90 1.50 325.00 -2.13 1.19 466.40 1.40 0.00 13.03
2022-06-14 07:00 AM 2.40 74.90 823.10 5.50 33.00 -1.59 1.19 262.90 1.30 0.00 12.66
2022-06-14 06:00 AM -1.90 86.20 823.20 3.90 355.00 -3.90 1.19 92.00 1.20 0.00 12.55
2022-06-14 05:00 AM -2.90 86.50 823.10 5.60 0.00 -4.84 1.19 -13.00 1.20 0.00 12.51
2022-06-14 04:00 AM -2.90 87.50 823.10 3.00 353.00 -4.68 1.19 -14.27 1.20 0.00 12.57
2022-06-14 03:00 AM -2.10 81.80 823.30 4.20 0.00 -4.79 1.19 -14.32 1.30 0.00 12.65
2022-06-14 02:00 AM -0.30 75.20 823.50 6.20 58.00 -4.15 1.19 -13.69 1.40 0.00 12.69
2022-06-14 01:00 AM 0.60 68.90 823.20 6.50 44.00 -4.45 1.19 -13.79 1.40 0.00 12.75
2022-06-14 12:00 AM 1.90 64.80 823.30 4.70 74.00 -4.02 1.19 -4.00 1.20 0.00 12.89